Flight Track Log - Related Links

Times and Time Zones

All times are in EDT time to prevent confusion due to time zone crossing. See the ASQ5025 flight status page for this flight to view local times or setup timezone preferences in your user account.


Time Position Orientation Groundspeed Altitude Reporting Facility
EDT Latitude Longitude Course Direction KTS MPH feet Rate Location/Type
Mon 11:37:25 AM 44.3972 -73.0531 196° South 213 245 6,300  Level Boston Center
Mon 11:38:25 AM 44.3325 -73.0786 196° South 242 278 9,100 2,050 Climbing Boston Center
Mon 11:39:25 AM 44.2572 -73.1156 199° South 280 322 10,400 1,800 Climbing Boston Center
Mon 11:40:25 AM 44.1675 -73.1550 198° South 327 376 12,700 2,350 Climbing Boston Center
Mon 11:41:25 AM 44.0714 -73.2000 199° South 356 410 15,100 2,450 Climbing Boston Center
Mon 11:42:00 AM 44.0113 -73.3222 196° South  Level FlightAware Approximate
Mon 11:42:25 AM 43.9792 -73.2450 199° South 363 418 17,600  Level Boston Center
Mon 11:43:25 AM 43.8811 -73.2897 198° South 369 425 19,900 2,200 Climbing Boston Center
Mon 11:44:25 AM 43.7828 -73.3344 198° South 369 425 22,000 1,850 Climbing Boston Center
Mon 11:45:25 AM 43.6822 -73.3817 199° South 376 433 23,600 1,550 Climbing Boston Center
Mon 11:46:25 AM 43.5861 -73.4261 199° South 386 444 25,100 1,200 Climbing Boston Center
Mon 11:47:25 AM 43.4772 -73.4758 198° South 403 464 26,000 450 Climbing Boston Center
Mon 11:48:25 AM 43.3622 -73.5253 197° South 416 479 26,000 -136 Level Boston Center
Mon 11:49:37 AM 43.2261 -73.5883 199° South 434 499 25,700 -455 Descending Boston Center
Mon 11:50:37 AM 43.0964 -73.6486 199° South 440 506 25,000 -350 Descending Boston Center
Mon 11:51:37 AM 42.9811 -73.7003 198° South 445 512 25,000  Level Boston Center
Mon 11:52:37 AM 42.8658 -73.7517 198° South 445 512 25,000  Level Boston Center
Mon 11:53:37 AM 42.7569 -73.8003 198° South 437 503 25,000 -318 Level Boston Center
Mon 11:54:49 AM 42.6072 -73.7828 175° South 425 489 24,300 -455 Descending Boston Center
Mon 11:55:49 AM 42.4886 -73.7550 170° South 430 495 24,000 -450 Descending Boston Center
Mon 11:56:49 AM 42.3661 -73.7300 171° South 440 506 23,400 -1,500 Descending Boston Center
Mon 11:57:49 AM 42.2600 -73.6997 168° South 447 514 21,000 -2,550 Descending Boston Center
Mon 11:58:49 AM 42.1289 -73.6775 173° South 447 514 18,300 -1,500 Descending Boston Center
Mon 11:59:49 AM 42.0292 -73.6558 171° South 430 495 18,000 -150 Descending Boston Center
Mon 12:00:49 PM 41.9103 -73.6703 185° South 400 460 18,000 -750 Level Boston Center
Mon 12:01:49 PM 41.8142 -73.6936 190° South 395 455 16,500 -1,850 Descending Boston Center
Mon 12:02:49 PM 41.7033 -73.7192 190° South 376 433 14,300 -1,859 Descending Boston Center
Mon 12:04:11 PM 41.5667 -73.7500 190° South 326 375 12,100 -1,479 Descending New York TRACON
Mon 12:05:11 PM 41.4833 -73.7667 189° South 295 339 10,800 -1,400 Descending New York TRACON
Mon 12:06:11 PM 41.4167 -73.7833 191° South 275 316 9,300 -1,400 Descending New York TRACON
Mon 12:07:11 PM 41.3333 -73.7833 180° South 270 311 8,000 -650 Descending New York TRACON
Mon 12:08:11 PM 41.2833 -73.7333 143° Southeast 273 314 8,000  Level New York TRACON
Mon 12:09:11 PM 41.2167 -73.6833 151° Southeast 271 312 8,000 -450 Level New York TRACON
Mon 12:10:11 PM 41.1500 -73.6500 159° South 230 265 7,100 -1,200 Descending New York TRACON
Mon 12:11:11 PM 41.1000 -73.6333 166° South 207 238 5,600 -1,238 Descending New York TRACON
Mon 12:12:17 PM 41.0500 -73.6500 194° South 175 201 4,500 -857 Descending New York TRACON
Mon 12:13:17 PM 41.0000 -73.6833 207° Southwest 172 198 3,800 -750 Descending New York TRACON
Mon 12:14:17 PM 40.9667 -73.7167 217° Southwest 172 198 3,000 -400 Descending New York TRACON
Mon 12:15:17 PM 40.9333 -73.7500 217° Southwest 172 198 3,000 -250 Level New York TRACON
Mon 12:16:17 PM 40.8833 -73.7833 207° Southwest 173 199 2,500 -750 Descending New York TRACON
Mon 12:17:17 PM 40.8500 -73.8167 217° Southwest 168 193 1,500 -850 Descending New York TRACON
Mon 12:18:17 PM 40.8167 -73.8500 217° Southwest 131 151 800 -700 Descending New York TRACON
Mon 12:20:00 PM 40.7772 -73.8726 180° South  Level Estimated

Login

Don't have an account? Register now (free) for customized features, flight alerts, and more!